LFCR/RDZ METAR and TAF weather

Enter ICAO airport designator
Station Type Date Time Source
LFCR METAR 2019/10/15 04:30 UTC NOAA

LFCR 150430Z AUTO 25004KT 9999 -RA SCT006/// BKN011/// BKN027/// ///TCU 10/10 Q1011 TEMPO 4000 RA BECMG BKN010 BKN020


Station Type Date Time Source
LFCR Decoded METAR 2019/10/15 04:30 UTC NOAA

Rodez, France (LFCR) 44-24N 002-29E 580M
Oct 15, 2019 - 12:30 AM EDT / 2019.10.15 0430 UTC
Wind: from the WSW (250 degrees) at 5 MPH (4 KT):0
Visibility: greater than 7 mile(s):0
Sky conditions: mostly cloudy
Weather: light rain; Towering cumulus clouds observed
Temperature: 50 F (10 C)
Dew Point: 50 F (10 C)
Relative Humidity: 100%
Pressure (altimeter): 29.85 in. Hg (1011 hPa)
ob: LFCR 150430Z AUTO 25004KT 9999 -RA SCT006/// BKN011/// BKN027/// ///TCU 10/10 Q1011 TEMPO 4000 RA BECMG BKN010 BKN020
cycle: 4

Station Type Date Time Source
LFCR TAF 2019/10/14 18:44 UTC NOAA

TAF LFCR 141700Z 1418/1518 14018G30KT 9999 FEW025 SCT050CB
TEMPO 1418/1422 4000 SHRA PROB40
TEMPO 1418/1422 2000 TSRA
BECMG 1422/1424 29012KT 4000 RA BKN005
TEMPO 1422/1501 2000 TSRA BKN020CB PROB30
TEMPO 1422/1424 30025G40KT 1200 TSRAGR
BECMG 1510/1512 9999 NSW BKN013
BECMG 1513/1515 SCT025 PROB40
TEMPO 1512/1518 4000 SHRA SCT020TCU

Example: see airport list